首页
METAR-TAF:

METAR-TAF

机场 :

富兰克林, 宾夕法尼亚州, 美国

纬度: 41-23N, 经度: 079-52W, 海拔: 469米

当前天气观测

该预报发布于18分钟前的17:56 UTC
风速7节,风向北转西北,有时为20节阵风,在西转西北之间变化
温度 11°C
湿度 35%
气压 1016 hPa
能見度: 16.1公里
天空无云

METAR: KFKL 021756Z AUTO 33007G20KT 290V360 10SM CLR 11/M04 A3000 RMK AO2 SLP170 T01061039 10111 20006 56007

时间: 14:14 (18:14 UTC)

预报

该预报发布于54分钟前的17:20 UTC
预报有效从02日的 18点(UTC)到 03日的 18点(UTC)
风速10节,风向西北,有时为20节阵风
能見度: 10公里
少量云层高于5000英尺
从 03日的 0200点(UTC)
风速7节,风向西北
能見度: 10公里
天空无云

TAF: KFKL 021720Z 0218/0318 32010G20KT P6SM FEW050 FM030200 31007KT P6SM SKC

超过4000个机场的气象观测和天气预报(METAR&TAF报告)。

可查询的气象台以黄色和红色小点在地图上表示。

将鼠标移到小点上方,可查看气象台名称。

然后点击查看天气观测和预报。

如需切换地图:点击带黑十字的绿色按钮放大地图;点击带横线的绿色按钮缩小地图;或者点击绿色箭头查看邻近地区的地图。


METAR-TAF: